地図

経路データ

SID SEASON NUMBER BASIN SUBBASIN NAME ISO_TIME NATURE LAT LON WMO_WIND WMO_PRES WMO_AGENCY TRACK_TYPE DIST2LAND LANDFALL IFLAG USA_AGENCY USA_ATCF_ID USA_LAT USA_LON USA_RECORD USA_STATUS USA_WIND USA_PRES USA_SSHS USA_R34_NE USA_R34_SE USA_R34_SW USA_R34_NW USA_R50_NE USA_R50_SE USA_R50_SW USA_R50_NW USA_R64_NE USA_R64_SE USA_R64_SW USA_R64_NW USA_POCI USA_ROCI USA_RMW USA_EYE TOKYO_LAT TOKYO_LON TOKYO_GRADE TOKYO_WIND TOKYO_PRES TOKYO_R50_DIR TOKYO_R50_LONG TOKYO_R50_SHORT TOKYO_R30_DIR TOKYO_R30_LONG TOKYO_R30_SHORT TOKYO_LAND CMA_LAT CMA_LON CMA_CAT CMA_WIND CMA_PRES HKO_LAT HKO_LON HKO_CAT HKO_WIND HKO_PRES NEWDELHI_LAT NEWDELHI_LON NEWDELHI_GRADE NEWDELHI_WIND NEWDELHI_PRES NEWDELHI_CI NEWDELHI_DP NEWDELHI_POCI REUNION_LAT REUNION_LON REUNION_TYPE REUNION_WIND REUNION_PRES REUNION_TNUM REUNION_CI REUNION_RMW REUNION_R34_NE REUNION_R34_SE REUNION_R34_SW REUNION_R34_NW REUNION_R50_NE REUNION_R50_SE REUNION_R50_SW REUNION_R50_NW REUNION_R64_NE REUNION_R64_SE REUNION_R64_SW REUNION_R64_NW BOM_LAT BOM_LON BOM_TYPE BOM_WIND BOM_PRES BOM_TNUM BOM_CI BOM_RMW BOM_R34_NE BOM_R34_SE BOM_R34_SW BOM_R34_NW BOM_R50_NE BOM_R50_SE BOM_R50_SW BOM_R50_NW BOM_R64_NE BOM_R64_SE BOM_R64_SW BOM_R64_NW BOM_ROCI BOM_POCI BOM_EYE BOM_POS_METHOD BOM_PRES_METHOD NADI_LAT NADI_LON NADI_CAT NADI_WIND NADI_PRES WELLINGTON_LAT WELLINGTON_LON WELLINGTON_WIND WELLINGTON_PRES DS824_LAT DS824_LON DS824_STAGE DS824_WIND DS824_PRES TD9636_LAT TD9636_LON TD9636_STAGE TD9636_WIND TD9636_PRES TD9635_LAT TD9635_LON TD9635_WIND TD9635_PRES TD9635_ROCI NEUMANN_LAT NEUMANN_LON NEUMANN_CLASS NEUMANN_WIND NEUMANN_PRES MLC_LAT MLC_LON MLC_CLASS MLC_WIND MLC_PRES USA_GUST BOM_GUST BOM_GUST_PER REUNION_GUST REUNION_GUST_PER USA_SEAHGT USA_SEARAD_NE USA_SEARAD_SE USA_SEARAD_SW USA_SEARAD_NW STORM_SPEED STORM_DIR
1968011S11120 1968 3 SI WA BETSY 1968-01-10 23:00:00 NR -11.0000 120.200 main 84 84 __________O___ -1 -11.0000 120.200 7 1 0
1968011S11120 1968 3 SI WA BETSY 1968-01-11 00:00:00 TS -11.0000 120.188 main 84 84 O________OP___ jtwc_sh SH121968 -11.0000 120.200 -1 -11.0000 120.200 TC -11.0000 120.175 7 1 0
1968011S11120 1968 3 SI WA BETSY 1968-01-11 01:00:00 TS -11.0000 120.174 1005 bom main 84 84 P_____O__PP___ SH121968 -11.0000 120.161 -1 -11.0000 120.300 1005 -11.0000 120.161 TC -11.0000 120.150 7 2 270
1968011S11120 1968 3 SI WA BETSY 1968-01-11 03:00:00 TS -11.0001 120.107 main 89 89 P_____P__PP___ SH121968 -11.0000 120.088 -1 -11.0003 120.179 -11.0000 120.088 TC -11.0000 120.100 7 2 270
1968011S11120 1968 3 SI WA BETSY 1968-01-11 06:00:00 TS -11.0001 120.019 main 92 92 O_____P__OP_O_ jtwc_sh SH121968 -11.0000 120.000 -1 -11.0005 120.001 -11.0000 120.000 TC -11.0000 120.025 7 -11.0000 120.200 TC 20 1004 2 270
1968011S11120 1968 3 SI WA BETSY 1968-01-11 09:00:00 TS -11.0001 119.942 main 95 95 P_____P__PP_P_ SH121968 -11.0000 119.950 -1 -11.0007 119.832 -11.0000 119.950 TC -11.0000 119.950 7 -11.0000 120.113 TC 20 1004 1 270
1968011S11120 1968 3 SI WA BETSY 1968-01-11 11:00:00 TS -11.0001 119.894 main 95 95 P_____P__PO_P_ SH121968 -11.0000 119.920 -1 -11.0007 119.727 -11.0000 119.920 TC -11.0000 119.900 7 -11.0000 120.042 TC 20 1004 1 270
1968011S11120 1968 3 SI WA BETSY 1968-01-11 12:00:00 TS -11.0001 119.871 main 95 95 O_____P__OP_O_ jtwc_sh SH121968 -11.0000 119.900 -1 -11.0007 119.678 -11.0000 119.900 TC -11.0000 119.875 7 -11.0000 120.000 TC 20 1004 2 270
1968011S11120 1968 3 SI WA BETSY 1968-01-11 15:00:00 TS -11.0001 119.758 main 99 99 P_____P__PP_P_ SH121968 -11.0000 119.800 -1 -11.0007 119.542 -11.0000 119.800 TC -11.0000 119.800 7 -11.0000 119.850 TC 22 1003 2 270
1968011S11120 1968 3 SI WA BETSY 1968-01-11 18:00:00 TS -11.0001 119.651 main 104 104 O_____P__OP_O_ jtwc_sh SH121968 -11.0000 119.700 -1 -11.0005 119.432 -11.0000 119.700 TC -11.0000 119.725 7 -11.0000 119.700 TC 25 1003 2 270
1968011S11120 1968 3 SI WA BETSY 1968-01-11 21:00:00 TS -11.0001 119.579 main 111 111 P_____P__PP_P_ SH121968 -11.0000 119.650 -1 -11.0003 119.351 -11.0000 119.650 TC -11.0000 119.650 7 -11.0000 119.592 TC 25 1003 1 270
1968011S11120 1968 3 SI WA BETSY 1968-01-11 23:00:00 TS -11.0000 119.537 main 117 117 P_____P__PO_P_ SH121968 -11.0000 119.620 -1 -11.0002 119.317 -11.0000 119.620 TC -11.0000 119.600 7 -11.0000 119.531 TC 25 1003 1 270
1968011S11120 1968 3 SI WA BETSY 1968-01-12 00:00:00 TS -11.0002 119.506 main 117 117 O_____P__OP_O_ jtwc_sh SH121968 -11.0000 119.600 -1 -11.0001 119.306 -11.0000 119.600 TC -11.0012 119.574 7 -11.0000 119.500 TC 25 1003 2 269
1968011S11120 1968 3 SI WA BETSY 1968-01-12 01:00:00 TS -11.0005 119.474 1003 bom main 117 117 P_____O__PP_P_ SH121968 -11.0000 119.570 -1 -11.0000 119.300 1003 -11.0000 119.570 TC -11.0026 119.547 7 -11.0000 119.464 TC 25 1003 2 269
1968011S11120 1968 3 SI WA BETSY 1968-01-12 03:00:00 TS -11.0011 119.426 main 125 125 P_____P__PP_P_ SH121968 -11.0000 119.500 -1 -10.9998 119.301 -11.0000 119.500 TC -11.0054 119.495 7 -11.0000 119.393 TC 25 1003 1 269
1968011S11120 1968 3 SI WA BETSY 1968-01-12 06:00:00 TS -11.0017 119.371 main 125 125 O_____P__OP_O_ jtwc_sh SH121968 -11.0000 119.400 -1 -10.9996 119.325 -11.0000 119.400 TC -11.0080 119.417 7 -11.0000 119.300 TC 25 1003 1 268
1968011S11120 1968 3 SI WA BETSY 1968-01-12 09:00:00 TS -11.0040 119.334 main 133 133 P_____P__PP_P_ SH121968 -11.0075 119.328 -1 -10.9994 119.358 -11.0075 119.328 TC -11.0057 119.344 7 -11.0000 119.243 TC 25 1003 1 269
1968011S11120 1968 3 SI WA BETSY 1968-01-12 11:00:00 TS -11.0025 119.317 main 133 133 P_____P__PO_P_ SH121968 -11.0057 119.303 -1 -10.9992 119.377 -11.0057 119.303 TC -11.0000 119.300 1 -11.0000 119.214 TC 25 1003 0 0
1968011S11120 1968 3 SI WA BETSY 1968-01-12 12:00:00 TS -10.9994 119.313 main 133 133 O_____P__OP_O_ jtwc_sh SH121968 -11.0000 119.300 -1 -10.9992 119.383 -11.0000 119.300 TC -10.9925 119.296 1 -11.0000 119.200 TC 25 1003 0 0
1968011S11120 1968 3 SI WA BETSY 1968-01-12 15:00:00 TS -10.9779 119.320 main 133 133 P_____P__PP_P_ SH121968 -10.9500 119.373 -1 -10.9992 119.378 -10.9500 119.373 TC -10.9635 119.296 1 -11.0000 119.150 TC 25 1003 0 0
1968011S11120 1968 3 SI WA BETSY 1968-01-12 18:00:00 TS -10.9559 119.294 main 133 123 O_____P__OP_O_ jtwc_sh SH121968 -10.9000 119.400 -1 -10.9993 119.324 -10.9000 119.400 TC -10.9320 119.280 1 -11.0000 119.100 TC 25 1003 1 283
1968011S11120 1968 3 SI WA BETSY 1968-01-12 21:00:00 TS -10.9466 119.189 main 125 125 P_____P__PP_P_ SH121968 -10.8849 119.267 -1 -10.9995 119.202 -10.8849 119.267 TC -10.9076 119.205 1 -11.0000 119.080 TC 25 1003 3 272
1968011S11120 1968 3 SI WA BETSY 1968-01-12 23:00:00 TS -10.9473 119.066 main 127 127 P_____P__PO_P_ SH121968 -10.8916 119.103 -1 -10.9998 119.074 -10.8916 119.103 TC -10.9000 119.100 7 -11.0000 119.040 TC 25 1003 4 269
1968011S11120 1968 3 SI WA BETSY 1968-01-13 00:00:00 TS -10.9503 118.985 main 141 141 O_____P__OP_O_ jtwc_sh SH121968 -10.9000 119.000 -1 -10.9999 118.993 -10.9000 119.000 TC -10.9017 119.019 7 -11.0000 119.000 TC 25 1003 5 268
1968011S11120 1968 3 SI WA BETSY 1968-01-13 01:00:00 TS -10.9548 118.893 1003 bom main 145 145 P_____O__PP_P_ SH121968 -10.9136 118.887 -1 -11.0000 118.900 1003 -10.9136 118.887 TC -10.9054 118.924 7 -10.9974 118.945 TC 25 1002 6 267
1968011S11120 1968 3 SI WA BETSY 1968-01-13 03:00:00 TS -10.9677 118.673 main 152 152 P_____P__PP_P_ SH121968 -10.9501 118.623 -1 -10.9984 118.674 1000 -10.9501 118.623 TC -10.9178 118.703 7 -10.9925 118.795 TC 27 1001 7 266
1968011S11120 1968 3 SI WA BETSY 1968-01-13 06:00:00 TS -10.9909 118.302 998 bom main 169 169 O_____O__OP_O_ jtwc_sh SH121968 -11.0000 118.200 -1 -11.0000 118.300 998 4 -11.0000 118.200 TC -10.9454 118.311 7 -11.0000 118.500 TC 30 999 7 267
1968011S11120 1968 3 SI WA BETSY 1968-01-13 09:00:00 TS -11.0049 117.949 main 196 196 P_____P__PP_P_ SH121968 -10.9999 117.850 -1 -10.9994 117.959 -10.9999 117.850 TC -10.9782 117.884 7 -11.0500 118.158 TC 32 998 7 268
1968011S11120 1968 3 SI WA BETSY 1968-01-13 11:00:00 TS -11.0146 117.713 main 211 211 P_____P__PO_P_ SH121968 -10.9969 117.620 -1 -11.0010 117.739 -10.9969 117.620 TC -11.0000 117.600 2 -11.0864 117.916 TC 34 998 7 267
1968011S11120 1968 3 SI WA BETSY 1968-01-13 12:00:00 TS -11.0200 117.597 main 219 213 O_____P__OP_O_ jtwc_sh SH121968 -11.0000 117.500 -1 -11.0030 117.630 -11.0000 117.500 TC -11.0070 117.475 2 -11.1000 117.800 TC 35 998 7 266
1968011S11120 1968 3 SI WA BETSY 1968-01-13 15:00:00 TS -11.0455 117.243 main 213 213 P_____P__PP_P_ SH121968 -11.0500 117.100 -1 -11.0162 117.308 -11.0500 117.100 TC -11.0277 117.100 2 -11.0999 117.500 TC 35 998 7 265
1968011S11120 1968 3 SI WA BETSY 1968-01-13 18:00:00 TS -11.0764 116.887 main 224 224 O_____P__OP_O_ jtwc_sh SH121968 -11.1000 116.700 -1 -11.0446 116.986 -11.1000 116.700 TC -11.0502 116.725 2 -11.1000 117.200 TC 35 998 7 265
1968011S11120 1968 3 SI WA BETSY 1968-01-13 21:00:00 TS -11.1067 116.539 main 230 230 P_____P__PP_P_ SH121968 -11.1074 116.350 -1 -11.0935 116.658 -11.1074 116.350 TC -11.0775 116.350 2 -11.1350 116.865 TC 35 998 7 264
1968011S11120 1968 3 SI WA BETSY 1968-01-13 23:00:00 TS -11.1317 116.303 main 235 235 P_____P__PO_P_ SH121968 -11.1026 116.120 -1 -11.1402 116.433 -11.1026 116.120 TC -11.1000 116.100 7 -11.1750 116.625 TC 35 998 7 264
1968011S11120 1968 3 SI WA BETSY 1968-01-14 00:00:00 TS -11.1459 116.182 main 236 236 O_____P__OP_O_ jtwc_sh SH121968 -11.1000 116.000 -1 -11.1684 116.317 -11.1000 116.000 TC -11.1071 115.974 7 -11.2000 116.500 TC 35 998 7 263
1968011S11120 1968 3 SI WA BETSY 1968-01-14 01:00:00 TS -11.1594 116.055 998 bom main 248 248 P_____O__PP_P_ SH121968 -11.0921 115.870 -1 -11.2000 116.200 998 -11.0921 115.870 TC -11.1144 115.847 7 -11.2224 116.372 TC 35 998 8 263
1968011S11120 1968 3 SI WA BETSY 1968-01-14 03:00:00 TS -11.1934 115.790 main 255 255 P_____P__PP_P_ SH121968 -11.0775 115.600 -1 -11.2804 115.936 -11.0775 115.600 TC -11.1315 115.594 7 -11.2775 116.107 TC 35 998 8 260
1968011S11120 1968 3 SI WA BETSY 1968-01-14 06:00:00 TS -11.2764 115.387 main 276 276 O_____P__OP_O_ jtwc_sh SH121968 -11.1000 115.200 -1 -11.4275 115.524 -11.1000 115.200 TC -11.1701 115.217 7 -11.4000 115.700 TC 35 998 8 254
1968011S11120 1968 3 SI WA BETSY 1968-01-14 09:00:00 TS -11.4171 114.999 main 291 291 P_____P__PP_P_ SH121968 -11.2274 114.850 -1 -11.6005 115.097 -11.2274 114.850 TC -11.2354 114.844 7 -11.5849 115.300 TC 35 998 8 248
1968011S11120 1968 3 SI WA BETSY 1968-01-14 11:00:00 TS -11.5312 114.741 main 302 302 P_____P__PO_P_ SH121968 -11.3421 114.620 -1 -11.7271 114.808 -11.3421 114.620 TC -11.3000 114.600 7 -11.7281 115.033 TC 35 998 8 245
1968011S11120 1968 3 SI WA BETSY 1968-01-14 12:00:00 TS -11.5908 114.610 main 313 313 O_____P__OP_O_ jtwc_sh SH121968 -11.4000 114.500 -1 -11.7931 114.664 -11.4000 114.500 TC -11.3416 114.474 7 -11.8000 114.900 TC 35 998 9 246
1968011S11120 1968 3 SI WA BETSY 1968-01-14 15:00:00 TS -11.7638 114.201 main 338 338 P_____P__PP_P_ SH121968 -11.5425 114.092 -1 -11.9989 114.232 -11.5425 114.092 TC -11.4938 114.099 7 -11.9999 114.500 TC 35 998 9 246
1968011S11120 1968 3 SI WA BETSY 1968-01-14 18:00:00 TS -11.9486 113.803 main 358 358 O_____P__OP_O_ jtwc_sh SH121968 -11.7000 113.700 -1 -12.2117 113.809 -11.7000 113.700 TC -11.6753 113.737 7 -12.2000 114.100 TC 35 998 8 243
1968011S11120 1968 3 SI WA BETSY 1968-01-14 21:00:00 TS -12.1513 113.435 main 402 402 P_____P__PP_P_ SH121968 -11.9000 113.370 -1 -12.4251 113.402 -11.9000 113.370 TC -11.8702 113.402 7 -12.4075 113.692 TC 35 998 8 240
1968011S11120 1968 3 SI WA BETSY 1968-01-14 23:00:00 TS -12.2854 113.210 main 419 419 P_____P__PO_P_ SH121968 -12.0364 113.183 -1 -12.5647 113.145 -12.0364 113.183 TC -12.0000 113.200 7 -12.5390 113.428 TC 35 998 8 239
1968011S11120 1968 3 SI WA BETSY 1968-01-15 00:00:00 TS -12.3479 113.105 main 421 421 O_____P__OP_O_ jtwc_sh SH121968 -12.1000 113.100 -1 -12.6330 113.020 -12.1000 113.100 TC -12.0545 113.109 7 -12.6000 113.300 TC 35 998 7 239
1968011S11120 1968 3 SI WA BETSY 1968-01-15 01:00:00 TS -12.4045 113.006 998 bom main 434 434 P_____O__PP_P_ SH121968 -12.1530 113.024 -1 -12.7000 112.900 998 -12.1530 113.024 TC -12.1086 113.024 7 -12.6557 113.172 TC 35 998 6 239
1968011S11120 1968 3 SI WA BETSY 1968-01-15 03:00:00 TS -12.5104 112.823 main 450 450 P_____P__PP_P_ SH121968 -12.2499 112.892 -1 -12.8182 112.682 -12.2499 112.892 TC -12.2167 112.866 7 -12.7575 112.927 TC 35 998 6 238
1968011S11120 1968 3 SI WA BETSY 1968-01-15 06:00:00 TS -12.6693 112.568 main 477 477 O_____P__OP_O_ jtwc_sh SH121968 -12.4000 112.700 -1 -12.9928 112.377 -12.4000 112.700 TC -12.3841 112.649 7 -12.9000 112.600 TC 35 998 6 236
1968011S11120 1968 3 SI WA BETSY 1968-01-15 09:00:00 TS -12.8414 112.315 main 494 494 P_____P__PP_P_ SH121968 -12.5850 112.457 -1 -13.1639 112.094 -12.5850 112.457 TC -12.5660 112.442 7 -13.0424 112.335 TC 35 998 6 234
1968011S11120 1968 3 SI WA BETSY 1968-01-15 11:00:00 TS -12.9644 112.149 main 517 517 P_____P__PO_P_ SH121968 -12.7250 112.286 -1 -13.2758 111.915 -12.7250 112.286 TC -12.7000 112.300 7 -13.1443 112.178 TC 35 998 6 232
1968011S11120 1968 3 SI WA BETSY 1968-01-15 12:00:00 TS -13.0300 112.066 main 517 517 O_____P__OP_O_ jtwc_sh SH121968 -12.8000 112.200 -1 -13.3311 111.829 -12.8000 112.200 TC -12.7782 112.220 7 -13.2000 112.100 TC 35 998 6 230
1968011S11120 1968 3 SI WA BETSY 1968-01-15 15:00:00 TS -13.2406 111.817 main 537 537 P_____P__PP_P_ SH121968 -13.0425 111.950 -1 -13.4939 111.579 -13.0425 111.950 TC -13.0313 111.975 7 -13.4000 111.850 TC 32 998 6 228
1968011S11120 1968 3 SI WA BETSY 1968-01-15 18:00:00 TS -13.4566 111.571 main 571 571 O_____P__OP_O_ jtwc_sh SH121968 -13.3000 111.700 -1 -13.6521 111.339 -13.3000 111.700 TC -13.2953 111.723 7 -13.6000 111.600 TC 30 999 6 228
1968011S11120 1968 3 SI WA BETSY 1968-01-15 21:00:00 TS -13.6673 111.326 main 595 595 P_____P__PP_P_ SH121968 -13.5725 111.450 -1 -13.8050 111.107 -13.5725 111.450 TC -13.5483 111.469 7 -13.7575 111.350 TC 30 999 6 229
1968011S11120 1968 3 SI WA BETSY 1968-01-15 23:00:00 TS -13.7956 111.163 main 607 607 P_____P__PO_P_ SH121968 -13.7338 111.283 -1 -13.9038 110.953 -13.7338 111.283 TC -13.7000 111.300 7 -13.8526 111.183 TC 30 999 6 232
1968011S11120 1968 3 SI WA BETSY 1968-01-16 00:00:00 TS -13.8524 111.082 main 619 619 O_____P__OP_O_ jtwc_sh SH121968 -13.8000 111.200 -1 -13.9523 110.877 -13.8000 111.200 TC -13.7621 111.218 7 -13.9000 111.100 TC 30 999 6 236
1968011S11120 1968 3 SI WA BETSY 1968-01-16 01:00:00 TS -13.9021 111.001 1000 bom main 620 620 P_____O__PP_P_ SH121968 -13.8452 111.117 -1 -14.0000 110.800 1000 -13.8452 111.117 TC -13.8201 111.136 7 -13.9526 111.017 TC 30 999 5 240
1968011S11120 1968 3 SI WA BETSY 1968-01-16 03:00:00 TS -13.9899 110.839 main 634 634 P_____P__PP_P_ SH121968 -13.9075 110.950 -1 -14.0934 110.646 -13.9075 110.950 TC -13.9260 110.972 7 -14.0575 110.850 TC 30 999 5 242
1968011S11120 1968 3 SI WA BETSY 1968-01-16 06:00:00 TS -14.1147 110.595 main 649 649 O_____P__OP_O_ jtwc_sh SH121968 -14.0000 110.700 -1 -14.2288 110.413 -14.0000 110.700 TC -14.0683 110.724 7 -14.2000 110.600 TC 30 1000 5 240
1968011S11120 1968 3 SI WA BETSY 1968-01-16 09:00:00 TS -14.2634 110.350 main 678 678 P_____P__PP_P_ SH121968 -14.1925 110.450 -1 -14.3591 110.177 -14.1925 110.450 TC -14.2047 110.472 7 -14.3000 110.350 TC 30 1000 6 238
1968011S11120 1968 3 SI WA BETSY 1968-01-16 11:00:00 TS -14.3663 110.185 main 691 691 P_____P__PO_P_ SH121968 -14.3338 110.283 -1 -14.4436 110.019 -14.3338 110.283 TC -14.3000 110.300 1 -14.3636 110.183 TC 30 1000 6 238
1968011S11120 1968 3 SI WA BETSY 1968-01-16 12:00:00 TS -14.4190 110.093 main 693 693 O_____P__OP_O_ jtwc_sh SH121968 -14.4000 110.200 -1 -14.4852 109.940 -14.4000 110.200 TC -14.3506 110.212 1 -14.4000 110.100 TC 30 1000 6 240
1968011S11120 1968 3 SI WA BETSY 1968-01-16 15:00:00 TS -14.5681 109.832 main 721 721 P_____P__PP_P_ SH121968 -14.5651 109.950 -1 -14.6076 109.702 -14.5651 109.950 TC -14.5138 109.944 1 -14.5500 109.843 TC 27 1000 6 240
1968011S11120 1968 3 SI WA BETSY 1968-01-16 18:00:00 TS -14.7134 109.564 main 737 737 O_____P__OP_O_ jtwc_sh SH121968 -14.7000 109.700 -1 -14.7273 109.462 -14.7000 109.700 TC -14.6903 109.668 1 -14.7000 109.600 TC 25 1001 6 242
1968011S11120 1968 3 SI WA BETSY 1968-01-16 21:00:00 TS -14.8478 109.296 main 754 754 ______P___P_P_ SH121968 -1 -14.8450 109.222 TC -14.8749 109.388 1 -14.8125 109.390 TC 25 1001 6 243
1968011S11120 1968 3 SI WA BETSY 1968-01-16 23:00:00 TS -14.9281 109.134 main 770 770 ______P___O_P_ SH121968 -1 -14.9227 109.061 TC -15.0000 109.200 7 -14.8721 109.262 TC 25 1001 5 246
1968011S11120 1968 3 SI WA BETSY 1968-01-17 00:00:00 TS -14.9557 109.040 main 783 783 ______P_____O_ -1 -14.9614 108.980 7 -14.9000 109.200 TC 25 1001 7 252
1968011S11120 1968 3 SI WA BETSY 1968-01-17 01:00:00 NR -15.0000 108.900 1002 bom main 786 ______O_______ -1 -15.0000 108.900 1002 7 TC 9 252

IBTrACS Databaseについて

本データベースは、米国NOAAが公開する1842年以降の世界の熱帯低気圧のベストトラックデータアーカイブInternational Best Track Archive for Climate Stewardship (IBTrACS)を、ウェブで閲覧しやすい形式に変換したものです。

最終更新日:2021-12-01